Time,TemperatureF,DewpointF,PressureIn,WindDirection,WindDirectionDegrees,WindSpeedMPH,WindSpeedGustMPH,Humidity,HourlyPrecipIn,Conditions,Clouds,dailyrainin,SoftwareType,DateUTC
2013-06-11 00:05:00,59.1,58.0,30.05,South,180,2.0,5.0,97,0.00,,,0.70,weatherlink.com 1.10,2013-06-11 04:05:00,
2013-06-11 00:20:00,59.1,58.0,30.04,SE,142,0.0,4.0,97,0.00,,,0.70,weatherlink.com 1.10,2013-06-11 04:20:00,
2013-06-11 00:35:00,59.3,59.0,30.02,East,80,2.0,3.0,98,0.00,,,0.70,weatherlink.com 1.10,2013-06-11 04:35:00,
2013-06-11 00:50:00,59.4,59.0,30.02,South,169,0.0,5.0,98,0.00,,,0.70,weatherlink.com 1.10,2013-06-11 04:50:00,
2013-06-11 01:05:00,59.5,59.0,30.01,WSW,252,0.0,5.0,98,0.01,,,0.71,weatherlink.com 1.10,2013-06-11 05:05:00,
2013-06-11 01:20:00,59.5,59.0,30.00,WSW,239,0.0,2.0,98,0.01,,,0.71,weatherlink.com 1.10,2013-06-11 05:20:00,
2013-06-11 01:35:00,59.5,59.0,29.99,South,188,1.0,2.0,98,0.01,,,0.71,weatherlink.com 1.10,2013-06-11 05:35:00,
2013-06-11 01:50:00,59.6,59.0,29.99,West,279,0.0,3.0,98,0.06,,,0.76,weatherlink.com 1.10,2013-06-11 05:50:00,
2013-06-11 02:05:00,59.7,59.0,29.98,East,88,0.0,2.0,98,0.06,,,0.77,weatherlink.com 1.10,2013-06-11 06:05:00,
2013-06-11 02:20:00,59.6,59.0,29.98,East,88,0.0,1.0,98,0.06,,,0.77,weatherlink.com 1.10,2013-06-11 06:20:00,
2013-06-11 02:35:00,59.6,59.0,29.97,East,88,0.0,0.0,98,0.05,,,0.77,weatherlink.com 1.10,2013-06-11 06:35:00,
2013-06-11 02:50:00,59.7,59.0,29.96,East,88,0.0,1.0,98,0.01,,,0.77,weatherlink.com 1.10,2013-06-11 06:50:00,
2013-06-11 03:05:00,59.7,59.0,29.95,SSW,194,0.0,2.0,98,0.00,,,0.77,weatherlink.com 1.10,2013-06-11 07:05:00,
2013-06-11 03:20:00,59.8,60.0,29.95,SSW,194,0.0,1.0,99,0.00,,,0.77,weatherlink.com 1.10,2013-06-11 07:20:00,
2013-06-11 03:35:00,59.8,60.0,29.94,SSW,194,0.0,0.0,99,0.00,,,0.77,weatherlink.com 1.10,2013-06-11 07:35:00,
2013-06-11 03:50:00,59.9,60.0,29.93,SSW,194,0.0,1.0,99,0.01,,,0.78,weatherlink.com 1.10,2013-06-11 07:50:00,
2013-06-11 04:05:00,59.9,60.0,29.93,SSW,194,0.0,1.0,99,0.12,,,0.89,weatherlink.com 1.10,2013-06-11 08:05:00,
2013-06-11 04:20:00,60.2,60.0,29.93,SSW,194,0.0,1.0,99,0.14,,,0.91,weatherlink.com 1.10,2013-06-11 08:20:00,
2013-06-11 04:35:00,60.2,60.0,29.93,SSW,198,0.0,3.0,99,0.15,,,0.92,weatherlink.com 1.10,2013-06-11 08:35:00,
2013-06-11 04:50:00,60.1,60.0,29.93,SSW,208,1.0,2.0,99,0.14,,,0.92,weatherlink.com 1.10,2013-06-11 08:50:00,
2013-06-11 05:05:00,60.0,60.0,29.93,SSW,196,0.0,2.0,99,0.03,,,0.92,weatherlink.com 1.10,2013-06-11 09:05:00,
2013-06-11 05:20:00,60.0,60.0,29.93,SSW,200,2.0,4.0,99,0.01,,,0.92,weatherlink.com 1.10,2013-06-11 09:20:00,
2013-06-11 05:35:00,60.0,60.0,29.92,South,187,1.0,2.0,99,0.00,,,0.92,weatherlink.com 1.10,2013-06-11 09:35:00,
2013-06-11 05:50:00,60.1,60.0,29.93,South,187,0.0,1.0,99,0.01,,,0.93,weatherlink.com 1.10,2013-06-11 09:50:00,
2013-06-11 06:05:00,60.2,60.0,29.93,South,187,0.0,0.0,99,0.01,,,0.93,weatherlink.com 1.10,2013-06-11 10:05:00,
2013-06-11 06:20:00,60.2,60.0,29.93,South,187,0.0,1.0,99,0.01,,,0.93,weatherlink.com 1.10,2013-06-11 10:20:00,
2013-06-11 06:35:00,60.3,60.0,29.93,South,187,0.0,0.0,99,0.01,,,0.93,weatherlink.com 1.10,2013-06-11 10:35:00,
2013-06-11 06:50:00,60.4,60.0,29.93,South,187,0.0,1.0,99,0.00,,,0.93,weatherlink.com 1.10,2013-06-11 10:50:00,
2013-06-11 07:05:00,60.5,60.0,29.93,South,187,0.0,0.0,99,0.00,,,0.93,weatherlink.com 1.10,2013-06-11 11:05:00,
2013-06-11 07:20:00,61.0,61.0,29.93,South,187,0.0,1.0,99,0.00,,,0.93,weatherlink.com 1.10,2013-06-11 11:20:00,
2013-06-11 07:35:00,61.3,61.0,29.93,South,187,0.0,0.0,99,0.00,,,0.93,weatherlink.com 1.10,2013-06-11 11:35:00,
2013-06-11 07:50:00,61.5,61.0,29.93,South,174,0.0,2.0,99,0.00,,,0.93,weatherlink.com 1.10,2013-06-11 11:50:00,
2013-06-11 08:05:00,61.9,62.0,29.93,SSE,168,2.0,2.0,99,0.00,,,0.93,weatherlink.com 1.10,2013-06-11 12:05:00,
2013-06-11 08:20:00,62.7,63.0,29.94,South,171,0.0,6.0,99,0.00,,,0.93,weatherlink.com 1.10,2013-06-11 12:20:00,
2013-06-11 08:35:00,63.1,63.0,29.93,ESE,119,1.0,2.0,100,0.00,,,0.93,weatherlink.com 1.10,2013-06-11 12:35:00,
2013-06-11 08:50:00,64.3,64.0,29.92,ESE,122,1.0,2.0,99,0.00,,,0.93,weatherlink.com 1.10,2013-06-11 12:50:00,
2013-06-11 09:05:00,65.5,65.0,29.92,North,5,3.0,5.0,98,0.00,,,0.93,weatherlink.com 1.10,2013-06-11 13:05:00,
2013-06-11 09:20:00,67.1,66.0,29.92,SSW,198,2.0,3.0,96,0.00,,,0.93,weatherlink.com 1.10,2013-06-11 13:20:00,
2013-06-11 09:35:00,69.3,66.0,29.91,SSW,192,1.0,4.0,89,0.00,,,0.93,weatherlink.com 1.10,2013-06-11 13:35:00,
2013-06-11 09:50:00,69.7,66.0,29.91,SSW,207,2.0,7.0,87,0.00,,,0.93,weatherlink.com 1.10,2013-06-11 13:50:00,
2013-06-11 10:05:00,70.3,67.0,29.91,SSW,193,0.0,3.0,89,0.00,,,0.93,weatherlink.com 1.10,2013-06-11 14:05:00,
2013-06-11 10:20:00,70.9,67.0,29.91,SSE,159,1.0,4.0,87,0.00,,,0.93,weatherlink.com 1.10,2013-06-11 14:20:00,
2013-06-11 10:36:00,71.6,67.0,29.90,WSW,255,1.0,5.0,84,0.00,,,0.93,weatherlink.com 1.10,2013-06-11 14:36:00,
2013-06-11 10:51:00,74.8,68.0,29.90,South,175,2.0,6.0,78,0.00,,,0.00,weatherlink.com 1.10,2013-06-11 14:51:00,
2013-06-11 11:06:00,76.2,68.0,29.89,NE,38,2.0,6.0,76,0.00,,,0.00,weatherlink.com 1.10,2013-06-11 15:06:00,
2013-06-11 11:21:00,78.5,67.0,29.89,SE,134,2.0,7.0,68,0.00,,,0.00,weatherlink.com 1.10,2013-06-11 15:21:00,
2013-06-11 11:36:00,78.1,67.0,29.89,South,178,0.0,5.0,68,0.00,,,0.00,weatherlink.com 1.10,2013-06-11 15:36:00,
2013-06-11 11:51:00,78.2,68.0,29.87,ESE,103,0.0,6.0,70,0.00,,,0.00,weatherlink.com 1.10,2013-06-11 15:51:00,
2013-06-11 12:21:00,78.5,67.0,29.86,ESE,108,1.0,7.0,68,0.00,,,0.00,weatherlink.com 1.10,2013-06-11 16:21:00,
2013-06-11 12:36:00,79.9,67.0,29.86,SSE,160,0.0,7.0,64,0.00,,,0.00,weatherlink.com 1.10,2013-06-11 16:36:00,
2013-06-11 13:21:00,79.2,65.0,29.84,ESE,118,3.0,12.0,62,0.00,,,0.00,weatherlink.com 1.10,2013-06-11 17:21:00,
2013-06-11 13:51:00,77.6,64.0,29.83,SW,217,4.0,7.0,64,0.00,,,0.00,weatherlink.com 1.10,2013-06-11 17:51:00,
2013-06-11 14:06:00,77.5,64.0,29.83,SE,131,3.0,7.0,64,0.00,,,0.00,weatherlink.com 1.10,2013-06-11 18:06:00,
2013-06-11 14:36:00,74.2,66.0,29.83,ESE,121,2.0,7.0,76,0.02,,,0.02,weatherlink.com 1.10,2013-06-11 18:36:00,
2013-06-11 14:51:00,70.4,66.0,29.83,East,87,1.0,3.0,87,0.09,,,0.09,weatherlink.com 1.10,2013-06-11 18:51:00,
2013-06-11 15:06:00,69.0,66.0,29.83,ENE,73,2.0,3.0,91,0.13,,,0.13,weatherlink.com 1.10,2013-06-11 19:06:00,
2013-06-11 15:21:00,69.0,67.0,29.82,SSW,200,0.0,6.0,92,0.13,,,0.13,weatherlink.com 1.10,2013-06-11 19:21:00,
2013-06-11 15:36:00,69.6,67.0,29.81,South,190,0.0,4.0,91,0.11,,,0.13,weatherlink.com 1.10,2013-06-11 19:36:00,
2013-06-11 15:51:00,71.3,67.0,29.81,NNW,346,4.0,13.0,87,0.04,,,0.13,weatherlink.com 1.10,2013-06-11 19:51:00,
2013-06-11 16:21:00,71.7,67.0,29.81,ESE,109,3.0,7.0,85,0.01,,,0.14,weatherlink.com 1.10,2013-06-11 20:21:00,
2013-06-11 16:37:00,70.2,67.0,29.81,West,261,3.0,4.0,89,0.02,,,0.15,weatherlink.com 1.10,2013-06-11 20:37:00,
2013-06-11 16:51:00,69.8,65.0,29.82,SSE,154,2.0,6.0,85,0.02,,,0.15,weatherlink.com 1.10,2013-06-11 20:51:00,
2013-06-11 17:06:00,69.4,64.0,29.82,SE,127,3.0,14.0,83,0.02,,,0.15,weatherlink.com 1.10,2013-06-11 21:06:00,
2013-06-11 17:21:00,69.8,65.0,29.81,NNW,338,0.0,9.0,85,0.01,,,0.15,weatherlink.com 1.10,2013-06-11 21:21:00,
2013-06-11 17:36:00,70.2,66.0,29.81,SSW,205,3.0,5.0,86,0.00,,,0.15,weatherlink.com 1.10,2013-06-11 21:36:00,
2013-06-11 17:52:00,70.2,65.0,29.81,WNW,294,0.0,8.0,83,0.00,,,0.15,weatherlink.com 1.10,2013-06-11 21:52:00,
2013-06-11 18:07:00,70.9,64.0,29.82,ESE,111,1.0,7.0,78,0.00,,,0.15,weatherlink.com 1.10,2013-06-11 22:07:00,
2013-06-11 18:22:00,70.8,64.0,29.81,NW,309,1.0,6.0,79,0.00,,,0.15,weatherlink.com 1.10,2013-06-11 22:22:00,
2013-06-11 18:37:00,70.9,62.0,29.82,South,173,8.0,11.0,74,0.00,,,0.15,weatherlink.com 1.10,2013-06-11 22:37:00,
2013-06-11 18:52:00,70.5,61.0,29.82,West,278,4.0,12.0,73,0.00,,,0.15,weatherlink.com 1.10,2013-06-11 22:52:00,
2013-06-11 19:07:00,70.2,61.0,29.82,West,275,1.0,14.0,73,0.00,,,0.15,weatherlink.com 1.10,2013-06-11 23:07:00,
2013-06-11 19:22:00,70.1,61.0,29.82,South,171,5.0,9.0,74,0.00,,,0.15,weatherlink.com 1.10,2013-06-11 23:22:00,
2013-06-11 19:37:00,69.5,61.0,29.83,NW,322,0.0,7.0,74,0.00,,,0.15,weatherlink.com 1.10,2013-06-11 23:37:00,
2013-06-11 19:52:00,69.0,61.0,29.83,NW,309,1.0,7.0,76,0.00,,,0.15,weatherlink.com 1.10,2013-06-11 23:52:00,
2013-06-11 20:07:00,68.6,60.0,29.84,SSW,205,4.0,7.0,75,0.00,,,0.15,weatherlink.com 1.10,2013-06-12 00:07:00,
2013-06-11 20:22:00,68.5,61.0,29.84,SSW,198,5.0,8.0,76,0.00,,,0.15,weatherlink.com 1.10,2013-06-12 00:22:00,
2013-06-11 20:37:00,68.4,60.0,29.84,WNW,283,4.0,10.0,75,0.00,,,0.15,weatherlink.com 1.10,2013-06-12 00:37:00,
2013-06-11 20:52:00,68.0,60.0,29.85,South,169,4.0,11.0,75,0.00,,,0.15,weatherlink.com 1.10,2013-06-12 00:52:00,
2013-06-11 21:07:00,67.8,60.0,29.85,SSW,193,3.0,8.0,75,0.00,,,0.15,weatherlink.com 1.10,2013-06-12 01:07:00,
2013-06-11 21:22:00,67.3,60.0,29.86,WSW,257,3.0,7.0,76,0.00,,,0.15,weatherlink.com 1.10,2013-06-12 01:22:00,
2013-06-11 21:37:00,66.8,59.0,29.87,WNW,290,0.0,12.0,77,0.00,,,0.15,weatherlink.com 1.10,2013-06-12 01:37:00,
2013-06-11 21:52:00,66.3,59.0,29.88,WNW,283,1.0,8.0,76,0.00,,,0.15,weatherlink.com 1.10,2013-06-12 01:52:00,
2013-06-11 22:07:00,66.0,58.0,29.88,SW,217,0.0,7.0,76,0.00,,,0.15,weatherlink.com 1.10,2013-06-12 02:07:00,
2013-06-11 22:22:00,65.7,58.0,29.88,West,276,4.0,7.0,76,0.00,,,0.15,weatherlink.com 1.10,2013-06-12 02:22:00,
2013-06-11 22:37:00,65.3,57.0,29.89,NW,325,4.0,7.0,74,0.00,,,0.15,weatherlink.com 1.10,2013-06-12 02:37:00,
2013-06-11 22:53:00,65.0,57.0,29.88,WNW,292,2.0,9.0,74,0.00,,,0.15,weatherlink.com 1.10,2013-06-12 02:53:00,
2013-06-11 23:07:00,64.7,57.0,29.88,NNW,333,0.0,5.0,75,0.00,,,0.15,weatherlink.com 1.10,2013-06-12 03:07:00,
2013-06-11 23:22:00,64.4,57.0,29.88,South,184,1.0,4.0,76,0.00,,,0.15,weatherlink.com 1.10,2013-06-12 03:22:00,
2013-06-11 23:37:00,64.3,57.0,29.88,NW,325,4.0,9.0,76,0.00,,,0.15,weatherlink.com 1.10,2013-06-12 03:37:00,
2013-06-11 23:52:00,64.3,57.0,29.89,ENE,62,0.0,9.0,76,0.00,,,0.15,weatherlink.com 1.10,2013-06-12 03:52:00,